sensor_id;sensor_type;location;lat;lon;timestamp;P1;durP1;ratioP1;P2;durP2;ratioP2
13122;SDS011;6627;50.920;12.050;2023-02-18T00:01:37;13.73;;;8.00;;
13122;SDS011;6627;50.920;12.050;2023-02-18T00:04:05;11.03;;;8.30;;
13122;SDS011;6627;50.920;12.050;2023-02-18T00:06:34;15.87;;;9.03;;
13122;SDS011;6627;50.920;12.050;2023-02-18T00:09:03;9.67;;;8.03;;
13122;SDS011;6627;50.920;12.050;2023-02-18T00:11:35;8.77;;;7.67;;
13122;SDS011;6627;50.920;12.050;2023-02-18T00:14:05;12.80;;;8.73;;
13122;SDS011;6627;50.920;12.050;2023-02-18T00:16:38;9.73;;;7.97;;
13122;SDS011;6627;50.920;12.050;2023-02-18T00:19:07;11.43;;;7.90;;
13122;SDS011;6627;50.920;12.050;2023-02-18T00:21:38;10.13;;;8.30;;
13122;SDS011;6627;50.920;12.050;2023-02-18T00:24:06;10.47;;;8.13;;
13122;SDS011;6627;50.920;12.050;2023-02-18T00:26:35;9.00;;;7.80;;
13122;SDS011;6627;50.920;12.050;2023-02-18T00:29:03;10.67;;;8.50;;
13122;SDS011;6627;50.920;12.050;2023-02-18T00:31:34;11.03;;;8.90;;
13122;SDS011;6627;50.920;12.050;2023-02-18T00:34:03;10.97;;;8.93;;
13122;SDS011;6627;50.920;12.050;2023-02-18T00:36:30;10.27;;;9.17;;
13122;SDS011;6627;50.920;12.050;2023-02-18T00:39:00;11.73;;;8.80;;
13122;SDS011;6627;50.920;12.050;2023-02-18T00:41:32;12.37;;;8.73;;
13122;SDS011;6627;50.920;12.050;2023-02-18T00:44:01;9.93;;;8.83;;
13122;SDS011;6627;50.920;12.050;2023-02-18T00:46:29;11.33;;;8.97;;
13122;SDS011;6627;50.920;12.050;2023-02-18T00:48:59;11.33;;;9.20;;
13122;SDS011;6627;50.920;12.050;2023-02-18T00:51:28;13.07;;;9.93;;
13122;SDS011;6627;50.920;12.050;2023-02-18T00:53:56;13.33;;;8.90;;
13122;SDS011;6627;50.920;12.050;2023-02-18T00:56:24;10.40;;;8.90;;
13122;SDS011;6627;50.920;12.050;2023-02-18T00:58:51;12.40;;;9.03;;
13122;SDS011;6627;50.920;12.050;2023-02-18T01:01:19;11.67;;;9.33;;
13122;SDS011;6627;50.920;12.050;2023-02-18T01:03:47;10.53;;;8.60;;
13122;SDS011;6627;50.920;12.050;2023-02-18T01:06:16;11.17;;;8.70;;
13122;SDS011;6627;50.920;12.050;2023-02-18T01:08:44;9.03;;;8.10;;
13122;SDS011;6627;50.920;12.050;2023-02-18T01:11:11;11.03;;;8.87;;
13122;SDS011;6627;50.920;12.050;2023-02-18T01:13:41;13.13;;;8.67;;
13122;SDS011;6627;50.920;12.050;2023-02-18T01:16:09;13.90;;;9.00;;
13122;SDS011;6627;50.920;12.050;2023-02-18T01:18:38;11.17;;;9.23;;
13122;SDS011;6627;50.920;12.050;2023-02-18T01:21:06;10.73;;;8.50;;
13122;SDS011;6627;50.920;12.050;2023-02-18T01:23:37;9.20;;;7.63;;
13122;SDS011;6627;50.920;12.050;2023-02-18T01:26:07;9.93;;;8.20;;
13122;SDS011;6627;50.920;12.050;2023-02-18T01:28:36;11.23;;;8.27;;
13122;SDS011;6627;50.920;12.050;2023-02-18T01:31:05;10.80;;;8.10;;
13122;SDS011;6627;50.920;12.050;2023-02-18T01:33:35;10.63;;;8.37;;
13122;SDS011;6627;50.920;12.050;2023-02-18T01:36:05;10.73;;;7.73;;
13122;SDS011;6627;50.920;12.050;2023-02-18T01:38:34;11.00;;;8.20;;
13122;SDS011;6627;50.920;12.050;2023-02-18T01:41:03;11.83;;;7.30;;
13122;SDS011;6627;50.920;12.050;2023-02-18T01:43:32;10.03;;;7.30;;
13122;SDS011;6627;50.920;12.050;2023-02-18T01:46:04;9.53;;;7.27;;
13122;SDS011;6627;50.920;12.050;2023-02-18T01:48:48;9.60;;;7.30;;
13122;SDS011;6627;50.920;12.050;2023-02-18T01:51:20;8.50;;;5.80;;
13122;SDS011;6627;50.920;12.050;2023-02-18T01:53:55;7.63;;;6.60;;
13122;SDS011;6627;50.920;12.050;2023-02-18T01:56:30;8.03;;;6.40;;
13122;SDS011;6627;50.920;12.050;2023-02-18T01:59:05;9.77;;;6.53;;
13122;SDS011;6627;50.920;12.050;2023-02-18T02:01:40;9.57;;;6.33;;
13122;SDS011;6627;50.920;12.050;2023-02-18T02:04:12;8.37;;;6.10;;
13122;SDS011;6627;50.920;12.050;2023-02-18T02:06:39;9.63;;;6.33;;
13122;SDS011;6627;50.920;12.050;2023-02-18T02:09:10;8.83;;;5.97;;
13122;SDS011;6627;50.920;12.050;2023-02-18T02:11:48;10.07;;;6.20;;
13122;SDS011;6627;50.920;12.050;2023-02-18T02:14:45;10.10;;;6.37;;
13122;SDS011;6627;50.920;12.050;2023-02-18T02:17:31;10.93;;;6.83;;
13122;SDS011;6627;50.920;12.050;2023-02-18T02:20:21;10.07;;;6.67;;
13122;SDS011;6627;50.920;12.050;2023-02-18T02:29:59;12.07;;;6.83;;
13122;SDS011;6627;50.920;12.050;2023-02-18T02:36:13;12.60;;;6.90;;
13122;SDS011;6627;50.920;12.050;2023-02-18T02:38:50;10.43;;;6.77;;
13122;SDS011;6627;50.920;12.050;2023-02-18T02:41:29;9.10;;;6.60;;
13122;SDS011;6627;50.920;12.050;2023-02-18T02:44:11;11.00;;;7.47;;
13122;SDS011;6627;50.920;12.050;2023-02-18T02:46:47;12.10;;;6.43;;
13122;SDS011;6627;50.920;12.050;2023-02-18T02:49:24;11.57;;;6.83;;
13122;SDS011;6627;50.920;12.050;2023-02-18T02:52:09;9.60;;;6.17;;
13122;SDS011;6627;50.920;12.050;2023-02-18T02:54:43;9.57;;;6.83;;
13122;SDS011;6627;50.920;12.050;2023-02-18T03:00:16;10.13;;;7.10;;
13122;SDS011;6627;50.920;12.050;2023-02-18T03:02:52;11.10;;;6.63;;
13122;SDS011;6627;50.920;12.050;2023-02-18T03:06:01;8.47;;;6.53;;
13122;SDS011;6627;50.920;12.050;2023-02-18T03:09:06;10.17;;;6.80;;
13122;SDS011;6627;50.920;12.050;2023-02-18T03:11:42;13.23;;;7.07;;
13122;SDS011;6627;50.920;12.050;2023-02-18T03:14:21;10.03;;;7.10;;
13122;SDS011;6627;50.920;12.050;2023-02-18T03:17:01;12.67;;;6.93;;
13122;SDS011;6627;50.920;12.050;2023-02-18T03:19:41;8.60;;;7.03;;
13122;SDS011;6627;50.920;12.050;2023-02-18T03:22:16;7.77;;;6.57;;
13122;SDS011;6627;50.920;12.050;2023-02-18T03:24:51;10.13;;;7.17;;
13122;SDS011;6627;50.920;12.050;2023-02-18T03:27:23;8.83;;;6.73;;
13122;SDS011;6627;50.920;12.050;2023-02-18T03:29:58;12.17;;;6.73;;
13122;SDS011;6627;50.920;12.050;2023-02-18T03:32:34;10.83;;;7.07;;
13122;SDS011;6627;50.920;12.050;2023-02-18T03:35:03;12.10;;;7.20;;
13122;SDS011;6627;50.920;12.050;2023-02-18T03:37:38;9.67;;;7.23;;
13122;SDS011;6627;50.920;12.050;2023-02-18T03:40:15;10.63;;;6.73;;
13122;SDS011;6627;50.920;12.050;2023-02-18T03:42:44;9.70;;;6.93;;
13122;SDS011;6627;50.920;12.050;2023-02-18T03:45:11;9.73;;;7.47;;
13122;SDS011;6627;50.920;12.050;2023-02-18T03:47:38;11.73;;;6.87;;
13122;SDS011;6627;50.920;12.050;2023-02-18T03:50:07;7.90;;;6.27;;
13122;SDS011;6627;50.920;12.050;2023-02-18T03:52:35;8.93;;;6.57;;
13122;SDS011;6627;50.920;12.050;2023-02-18T03:55:04;7.40;;;6.17;;
13122;SDS011;6627;50.920;12.050;2023-02-18T03:57:35;10.37;;;7.00;;
13122;SDS011;6627;50.920;12.050;2023-02-18T04:00:03;9.13;;;6.83;;
13122;SDS011;6627;50.920;12.050;2023-02-18T04:02:32;9.27;;;6.60;;
13122;SDS011;6627;50.920;12.050;2023-02-18T04:05:00;8.77;;;6.83;;
13122;SDS011;6627;50.920;12.050;2023-02-18T04:07:27;7.60;;;6.77;;
13122;SDS011;6627;50.920;12.050;2023-02-18T04:09:54;7.93;;;6.63;;
13122;SDS011;6627;50.920;12.050;2023-02-18T04:12:21;11.50;;;7.07;;
13122;SDS011;6627;50.920;12.050;2023-02-18T04:14:50;11.23;;;7.20;;
13122;SDS011;6627;50.920;12.050;2023-02-18T04:17:17;9.67;;;7.10;;
13122;SDS011;6627;50.920;12.050;2023-02-18T04:19:45;7.73;;;6.70;;
13122;SDS011;6627;50.920;12.050;2023-02-18T04:22:12;10.47;;;7.33;;
13122;SDS011;6627;50.920;12.050;2023-02-18T04:24:39;8.70;;;6.97;;
13122;SDS011;6627;50.920;12.050;2023-02-18T04:27:07;9.43;;;7.10;;
13122;SDS011;6627;50.920;12.050;2023-02-18T04:29:34;8.27;;;6.50;;
13122;SDS011;6627;50.920;12.050;2023-02-18T04:32:05;8.70;;;6.93;;
13122;SDS011;6627;50.920;12.050;2023-02-18T04:34:32;8.73;;;7.00;;
13122;SDS011;6627;50.920;12.050;2023-02-18T04:37:00;7.97;;;6.60;;
13122;SDS011;6627;50.920;12.050;2023-02-18T04:39:27;9.37;;;7.17;;
13122;SDS011;6627;50.920;12.050;2023-02-18T04:41:55;8.03;;;6.90;;
13122;SDS011;6627;50.920;12.050;2023-02-18T04:44:22;11.17;;;7.80;;
13122;SDS011;6627;50.920;12.050;2023-02-18T04:46:50;10.23;;;7.43;;
13122;SDS011;6627;50.920;12.050;2023-02-18T04:49:18;9.03;;;7.20;;
13122;SDS011;6627;50.920;12.050;2023-02-18T04:51:46;9.13;;;6.97;;
13122;SDS011;6627;50.920;12.050;2023-02-18T04:54:15;10.87;;;7.23;;
13122;SDS011;6627;50.920;12.050;2023-02-18T04:56:42;9.10;;;7.00;;
13122;SDS011;6627;50.920;12.050;2023-02-18T04:59:09;13.27;;;8.00;;
13122;SDS011;6627;50.920;12.050;2023-02-18T05:01:37;11.17;;;7.80;;
13122;SDS011;6627;50.920;12.050;2023-02-18T05:04:05;12.53;;;8.73;;
13122;SDS011;6627;50.920;12.050;2023-02-18T05:09:05;12.23;;;8.20;;
13122;SDS011;6627;50.920;12.050;2023-02-18T05:11:33;13.23;;;8.33;;
13122;SDS011;6627;50.920;12.050;2023-02-18T05:14:02;14.53;;;8.70;;
13122;SDS011;6627;50.920;12.050;2023-02-18T05:16:29;13.23;;;8.67;;
13122;SDS011;6627;50.920;12.050;2023-02-18T05:18:56;17.37;;;9.90;;
13122;SDS011;6627;50.920;12.050;2023-02-18T05:21:24;13.33;;;9.57;;
13122;SDS011;6627;50.920;12.050;2023-02-18T05:23:53;19.03;;;10.23;;
13122;SDS011;6627;50.920;12.050;2023-02-18T05:26:20;22.07;;;10.33;;
13122;SDS011;6627;50.920;12.050;2023-02-18T05:28:47;18.87;;;10.23;;
13122;SDS011;6627;50.920;12.050;2023-02-18T05:31:15;14.00;;;9.50;;
13122;SDS011;6627;50.920;12.050;2023-02-18T05:33:42;18.03;;;10.30;;
13122;SDS011;6627;50.920;12.050;2023-02-18T05:36:09;18.17;;;10.60;;
13122;SDS011;6627;50.920;12.050;2023-02-18T05:38:36;16.90;;;11.23;;
13122;SDS011;6627;50.920;12.050;2023-02-18T05:41:06;15.60;;;10.50;;
13122;SDS011;6627;50.920;12.050;2023-02-18T05:43:33;17.10;;;11.37;;
13122;SDS011;6627;50.920;12.050;2023-02-18T05:46:23;19.57;;;11.17;;
13122;SDS011;6627;50.920;12.050;2023-02-18T05:48:50;19.40;;;11.03;;
13122;SDS011;6627;50.920;12.050;2023-02-18T05:51:17;17.73;;;11.00;;
13122;SDS011;6627;50.920;12.050;2023-02-18T05:53:45;18.13;;;11.77;;
13122;SDS011;6627;50.920;12.050;2023-02-18T05:56:13;17.43;;;11.47;;
13122;SDS011;6627;50.920;12.050;2023-02-18T05:58:42;19.77;;;11.33;;
13122;SDS011;6627;50.920;12.050;2023-02-18T06:01:10;18.47;;;12.70;;
13122;SDS011;6627;50.920;12.050;2023-02-18T06:03:38;18.70;;;12.57;;
13122;SDS011;6627;50.920;12.050;2023-02-18T06:06:06;19.73;;;12.80;;
13122;SDS011;6627;50.920;12.050;2023-02-18T06:08:33;18.87;;;11.73;;
13122;SDS011;6627;50.920;12.050;2023-02-18T06:11:01;16.33;;;10.43;;
13122;SDS011;6627;50.920;12.050;2023-02-18T06:13:31;16.47;;;10.50;;
13122;SDS011;6627;50.920;12.050;2023-02-18T06:15:59;14.87;;;9.77;;
13122;SDS011;6627;50.920;12.050;2023-02-18T06:18:26;13.30;;;9.33;;
13122;SDS011;6627;50.920;12.050;2023-02-18T06:20:54;9.43;;;7.90;;
13122;SDS011;6627;50.920;12.050;2023-02-18T06:23:21;10.80;;;8.60;;
13122;SDS011;6627;50.920;12.050;2023-02-18T06:25:49;8.43;;;7.53;;
13122;SDS011;6627;50.920;12.050;2023-02-18T06:28:17;6.30;;;5.20;;
13122;SDS011;6627;50.920;12.050;2023-02-18T06:30:46;6.67;;;4.90;;
13122;SDS011;6627;50.920;12.050;2023-02-18T06:33:16;6.13;;;4.20;;
13122;SDS011;6627;50.920;12.050;2023-02-18T06:35:51;4.37;;;3.83;;
13122;SDS011;6627;50.920;12.050;2023-02-18T06:38:20;5.63;;;5.13;;
13122;SDS011;6627;50.920;12.050;2023-02-18T06:40:49;7.90;;;7.10;;
13122;SDS011;6627;50.920;12.050;2023-02-18T06:43:18;5.13;;;3.30;;
13122;SDS011;6627;50.920;12.050;2023-02-18T06:45:49;3.03;;;2.30;;
13122;SDS011;6627;50.920;12.050;2023-02-18T06:48:18;2.67;;;2.30;;
13122;SDS011;6627;50.920;12.050;2023-02-18T06:50:45;3.90;;;2.47;;
13122;SDS011;6627;50.920;12.050;2023-02-18T06:53:13;3.10;;;2.30;;
13122;SDS011;6627;50.920;12.050;2023-02-18T06:55:42;4.00;;;2.40;;
13122;SDS011;6627;50.920;12.050;2023-02-18T06:58:10;2.67;;;2.20;;
13122;SDS011;6627;50.920;12.050;2023-02-18T07:00:39;3.00;;;1.90;;
13122;SDS011;6627;50.920;12.050;2023-02-18T07:03:09;2.30;;;1.90;;
13122;SDS011;6627;50.920;12.050;2023-02-18T07:05:40;2.70;;;1.97;;
13122;SDS011;6627;50.920;12.050;2023-02-18T07:08:08;2.27;;;1.90;;
13122;SDS011;6627;50.920;12.050;2023-02-18T07:10:36;4.13;;;1.90;;
13122;SDS011;6627;50.920;12.050;2023-02-18T07:13:04;2.03;;;1.50;;
13122;SDS011;6627;50.920;12.050;2023-02-18T07:15:32;4.67;;;1.90;;
13122;SDS011;6627;50.920;12.050;2023-02-18T07:18:00;3.30;;;2.30;;
13122;SDS011;6627;50.920;12.050;2023-02-18T07:20:29;2.33;;;2.13;;
13122;SDS011;6627;50.920;12.050;2023-02-18T07:22:58;4.10;;;2.60;;
13122;SDS011;6627;50.920;12.050;2023-02-18T07:25:26;1.57;;;1.40;;
13122;SDS011;6627;50.920;12.050;2023-02-18T07:27:54;17.07;;;10.37;;
13122;SDS011;6627;50.920;12.050;2023-02-18T07:30:23;4.07;;;3.00;;
13122;SDS011;6627;50.920;12.050;2023-02-18T07:32:51;5.30;;;3.97;;
13122;SDS011;6627;50.920;12.050;2023-02-18T07:35:18;18.10;;;16.13;;
13122;SDS011;6627;50.920;12.050;2023-02-18T07:37:48;13.43;;;9.33;;
13122;SDS011;6627;50.920;12.050;2023-02-18T07:40:17;7.47;;;6.67;;
13122;SDS011;6627;50.920;12.050;2023-02-18T07:42:47;8.00;;;7.10;;
13122;SDS011;6627;50.920;12.050;2023-02-18T07:45:14;7.47;;;6.77;;
13122;SDS011;6627;50.920;12.050;2023-02-18T07:47:42;5.40;;;4.90;;
13122;SDS011;6627;50.920;12.050;2023-02-18T07:50:10;3.17;;;2.87;;
13122;SDS011;6627;50.920;12.050;2023-02-18T07:52:40;7.30;;;6.60;;
13122;SDS011;6627;50.920;12.050;2023-02-18T07:55:10;4.10;;;2.40;;
13122;SDS011;6627;50.920;12.050;2023-02-18T07:57:38;2.80;;;2.33;;
13122;SDS011;6627;50.920;12.050;2023-02-18T08:00:22;3.20;;;2.60;;
13122;SDS011;6627;50.920;12.050;2023-02-18T08:02:51;5.40;;;3.37;;
13122;SDS011;6627;50.920;12.050;2023-02-18T08:05:19;1.90;;;1.63;;
13122;SDS011;6627;50.920;12.050;2023-02-18T08:07:46;2.20;;;1.17;;
13122;SDS011;6627;50.920;12.050;2023-02-18T08:10:16;1.50;;;1.40;;
13122;SDS011;6627;50.920;12.050;2023-02-18T08:12:44;2.17;;;1.70;;
13122;SDS011;6627;50.920;12.050;2023-02-18T08:15:11;1.40;;;0.90;;
13122;SDS011;6627;50.920;12.050;2023-02-18T08:17:39;1.43;;;1.20;;
13122;SDS011;6627;50.920;12.050;2023-02-18T08:20:06;0.80;;;0.80;;
13122;SDS011;6627;50.920;12.050;2023-02-18T08:22:36;1.20;;;1.10;;
13122;SDS011;6627;50.920;12.050;2023-02-18T08:25:04;1.60;;;1.30;;
13122;SDS011;6627;50.920;12.050;2023-02-18T08:27:34;1.40;;;1.30;;
13122;SDS011;6627;50.920;12.050;2023-02-18T08:30:02;1.00;;;0.90;;
13122;SDS011;6627;50.920;12.050;2023-02-18T08:32:32;2.17;;;1.20;;
13122;SDS011;6627;50.920;12.050;2023-02-18T08:34:59;2.30;;;1.67;;
13122;SDS011;6627;50.920;12.050;2023-02-18T08:37:27;2.23;;;1.47;;
13122;SDS011;6627;50.920;12.050;2023-02-18T08:39:56;2.03;;;1.23;;
13122;SDS011;6627;50.920;12.050;2023-02-18T08:42:24;1.00;;;0.80;;
13122;SDS011;6627;50.920;12.050;2023-02-18T08:44:54;1.37;;;0.97;;
13122;SDS011;6627;50.920;12.050;2023-02-18T08:47:21;1.33;;;1.23;;
13122;SDS011;6627;50.920;12.050;2023-02-18T08:49:48;0.97;;;0.83;;
13122;SDS011;6627;50.920;12.050;2023-02-18T08:52:18;0.60;;;0.60;;
13122;SDS011;6627;50.920;12.050;2023-02-18T08:54:48;0.73;;;0.70;;
13122;SDS011;6627;50.920;12.050;2023-02-18T08:57:16;1.50;;;0.80;;
13122;SDS011;6627;50.920;12.050;2023-02-18T08:59:44;0.70;;;0.70;;
13122;SDS011;6627;50.920;12.050;2023-02-18T09:02:13;0.90;;;0.73;;
13122;SDS011;6627;50.920;12.050;2023-02-18T09:04:41;1.77;;;1.10;;
13122;SDS011;6627;50.920;12.050;2023-02-18T09:07:09;1.00;;;0.80;;
13122;SDS011;6627;50.920;12.050;2023-02-18T09:09:36;2.30;;;1.20;;
13122;SDS011;6627;50.920;12.050;2023-02-18T09:12:05;1.27;;;0.90;;
13122;SDS011;6627;50.920;12.050;2023-02-18T09:14:33;0.70;;;0.70;;
13122;SDS011;6627;50.920;12.050;2023-02-18T09:17:01;0.87;;;0.70;;
13122;SDS011;6627;50.920;12.050;2023-02-18T09:19:31;0.80;;;0.80;;
13122;SDS011;6627;50.920;12.050;2023-02-18T09:21:58;1.13;;;0.70;;
13122;SDS011;6627;50.920;12.050;2023-02-18T09:24:26;0.77;;;0.60;;
13122;SDS011;6627;50.920;12.050;2023-02-18T09:26:53;0.70;;;0.70;;
13122;SDS011;6627;50.920;12.050;2023-02-18T09:29:21;0.60;;;0.60;;
13122;SDS011;6627;50.920;12.050;2023-02-18T09:31:50;1.43;;;0.60;;
13122;SDS011;6627;50.920;12.050;2023-02-18T09:34:18;0.50;;;0.43;;
13122;SDS011;6627;50.920;12.050;2023-02-18T09:36:47;11.27;;;7.20;;
13122;SDS011;6627;50.920;12.050;2023-02-18T09:39:23;0.40;;;0.40;;
13122;SDS011;6627;50.920;12.050;2023-02-18T09:41:51;0.40;;;0.40;;
13122;SDS011;6627;50.920;12.050;2023-02-18T09:44:24;1.10;;;1.00;;
13122;SDS011;6627;50.920;12.050;2023-02-18T09:46:56;0.83;;;0.40;;
13122;SDS011;6627;50.920;12.050;2023-02-18T09:49:29;0.60;;;0.60;;
13122;SDS011;6627;50.920;12.050;2023-02-18T09:52:05;0.67;;;0.60;;
13122;SDS011;6627;50.920;12.050;2023-02-18T09:54:39;0.53;;;0.53;;
13122;SDS011;6627;50.920;12.050;2023-02-18T09:57:09;0.50;;;0.50;;
13122;SDS011;6627;50.920;12.050;2023-02-18T09:59:51;0.50;;;0.50;;
13122;SDS011;6627;50.920;12.050;2023-02-18T10:02:26;0.60;;;0.60;;
13122;SDS011;6627;50.920;12.050;2023-02-18T10:04:54;1.20;;;0.47;;
13122;SDS011;6627;50.920;12.050;2023-02-18T10:07:26;0.40;;;0.40;;
13122;SDS011;6627;50.920;12.050;2023-02-18T10:09:58;0.50;;;0.50;;
13122;SDS011;6627;50.920;12.050;2023-02-18T10:12:42;0.60;;;0.60;;
13122;SDS011;6627;50.920;12.050;2023-02-18T10:15:16;0.37;;;0.37;;
13122;SDS011;6627;50.920;12.050;2023-02-18T10:17:49;2.70;;;0.40;;
13122;SDS011;6627;50.920;12.050;2023-02-18T10:20:19;0.50;;;0.50;;
13122;SDS011;6627;50.920;12.050;2023-02-18T10:22:52;0.30;;;0.30;;
13122;SDS011;6627;50.920;12.050;2023-02-18T10:25:23;0.40;;;0.40;;
13122;SDS011;6627;50.920;12.050;2023-02-18T10:27:53;0.70;;;0.70;;
13122;SDS011;6627;50.920;12.050;2023-02-18T10:30:22;1.27;;;0.43;;
13122;SDS011;6627;50.920;12.050;2023-02-18T10:32:59;0.40;;;0.40;;
13122;SDS011;6627;50.920;12.050;2023-02-18T10:35:49;0.50;;;0.50;;
13122;SDS011;6627;50.920;12.050;2023-02-18T10:38:25;0.50;;;0.50;;
13122;SDS011;6627;50.920;12.050;2023-02-18T10:41:08;0.50;;;0.50;;
13122;SDS011;6627;50.920;12.050;2023-02-18T10:43:47;0.30;;;0.30;;
13122;SDS011;6627;50.920;12.050;2023-02-18T10:46:25;0.60;;;0.60;;
13122;SDS011;6627;50.920;12.050;2023-02-18T10:49:05;0.80;;;0.80;;
13122;SDS011;6627;50.920;12.050;2023-02-18T10:51:55;0.40;;;0.40;;
13122;SDS011;6627;50.920;12.050;2023-02-18T10:54:47;0.47;;;0.47;;
13122;SDS011;6627;50.920;12.050;2023-02-18T10:57:18;0.50;;;0.50;;
13122;SDS011;6627;50.920;12.050;2023-02-18T10:59:55;0.50;;;0.50;;
13122;SDS011;6627;50.920;12.050;2023-02-18T11:02:28;0.63;;;0.60;;
13122;SDS011;6627;50.920;12.050;2023-02-18T11:04:59;0.43;;;0.40;;
13122;SDS011;6627;50.920;12.050;2023-02-18T11:07:43;0.50;;;0.50;;
13122;SDS011;6627;50.920;12.050;2023-02-18T11:10:18;0.50;;;0.50;;
13122;SDS011;6627;50.920;12.050;2023-02-18T11:12:51;0.70;;;0.70;;
13122;SDS011;6627;50.920;12.050;2023-02-18T11:15:24;0.67;;;0.67;;
13122;SDS011;6627;50.920;12.050;2023-02-18T11:17:55;1.00;;;0.80;;
13122;SDS011;6627;50.920;12.050;2023-02-18T11:20:37;0.83;;;0.60;;
13122;SDS011;6627;50.920;12.050;2023-02-18T11:23:14;0.77;;;0.70;;
13122;SDS011;6627;50.920;12.050;2023-02-18T11:25:53;0.97;;;0.73;;
13122;SDS011;6627;50.920;12.050;2023-02-18T11:28:26;0.67;;;0.67;;
13122;SDS011;6627;50.920;12.050;2023-02-18T11:31:08;0.80;;;0.80;;
13122;SDS011;6627;50.920;12.050;2023-02-18T11:33:47;0.70;;;0.70;;
13122;SDS011;6627;50.920;12.050;2023-02-18T11:36:22;0.80;;;0.80;;
13122;SDS011;6627;50.920;12.050;2023-02-18T11:38:54;1.40;;;0.80;;
13122;SDS011;6627;50.920;12.050;2023-02-18T11:41:31;1.13;;;0.80;;
13122;SDS011;6627;50.920;12.050;2023-02-18T11:44:03;0.60;;;0.60;;
13122;SDS011;6627;50.920;12.050;2023-02-18T11:46:34;0.87;;;0.70;;
13122;SDS011;6627;50.920;12.050;2023-02-18T11:49:10;1.57;;;0.80;;
13122;SDS011;6627;50.920;12.050;2023-02-18T11:51:47;0.90;;;0.80;;
13122;SDS011;6627;50.920;12.050;2023-02-18T11:54:21;2.17;;;0.70;;
13122;SDS011;6627;50.920;12.050;2023-02-18T11:56:55;0.40;;;0.40;;
13122;SDS011;6627;50.920;12.050;2023-02-18T11:59:28;0.97;;;0.53;;
13122;SDS011;6627;50.920;12.050;2023-02-18T12:02:01;0.70;;;0.60;;
13122;SDS011;6627;50.920;12.050;2023-02-18T12:04:52;0.60;;;0.60;;
13122;SDS011;6627;50.920;12.050;2023-02-18T12:07:28;0.50;;;0.50;;
13122;SDS011;6627;50.920;12.050;2023-02-18T12:10:10;0.87;;;0.80;;
13122;SDS011;6627;50.920;12.050;2023-02-18T12:12:48;0.97;;;0.63;;
13122;SDS011;6627;50.920;12.050;2023-02-18T12:15:26;0.63;;;0.63;;
13122;SDS011;6627;50.920;12.050;2023-02-18T12:18:18;1.30;;;0.70;;
13122;SDS011;6627;50.920;12.050;2023-02-18T12:21:21;0.80;;;0.80;;
13122;SDS011;6627;50.920;12.050;2023-02-18T12:24:08;1.97;;;0.70;;
13122;SDS011;6627;50.920;12.050;2023-02-18T12:26:53;1.00;;;0.60;;
13122;SDS011;6627;50.920;12.050;2023-02-18T12:29:38;0.93;;;0.60;;
13122;SDS011;6627;50.920;12.050;2023-02-18T12:32:27;0.80;;;0.70;;
13122;SDS011;6627;50.920;12.050;2023-02-18T12:37:46;1.27;;;0.70;;
13122;SDS011;6627;50.920;12.050;2023-02-18T12:40:38;0.87;;;0.80;;
13122;SDS011;6627;50.920;12.050;2023-02-18T12:43:26;1.30;;;0.70;;
13122;SDS011;6627;50.920;12.050;2023-02-18T12:46:16;0.70;;;0.50;;
13122;SDS011;6627;50.920;12.050;2023-02-18T12:52:19;0.80;;;0.70;;
13122;SDS011;6627;50.920;12.050;2023-02-18T12:55:07;1.20;;;0.60;;
13122;SDS011;6627;50.920;12.050;2023-02-18T12:57:57;0.50;;;0.50;;
13122;SDS011;6627;50.920;12.050;2023-02-18T13:00:58;1.07;;;0.70;;
13122;SDS011;6627;50.920;12.050;2023-02-18T13:03:53;0.60;;;0.60;;
13122;SDS011;6627;50.920;12.050;2023-02-18T13:06:47;2.23;;;0.60;;
13122;SDS011;6627;50.920;12.050;2023-02-18T13:09:49;0.77;;;0.60;;
13122;SDS011;6627;50.920;12.050;2023-02-18T13:12:45;1.33;;;0.63;;
13122;SDS011;6627;50.920;12.050;2023-02-18T13:15:22;0.90;;;0.83;;
13122;SDS011;6627;50.920;12.050;2023-02-18T13:18:08;0.63;;;0.63;;
13122;SDS011;6627;50.920;12.050;2023-02-18T13:20:44;1.60;;;1.00;;
13122;SDS011;6627;50.920;12.050;2023-02-18T13:23:18;1.13;;;1.03;;
13122;SDS011;6627;50.920;12.050;2023-02-18T13:25:50;2.20;;;1.00;;
13122;SDS011;6627;50.920;12.050;2023-02-18T13:28:25;0.60;;;0.60;;
13122;SDS011;6627;50.920;12.050;2023-02-18T13:31:12;0.80;;;0.77;;
13122;SDS011;6627;50.920;12.050;2023-02-18T13:33:55;1.37;;;1.00;;
13122;SDS011;6627;50.920;12.050;2023-02-18T13:36:38;2.07;;;0.73;;
13122;SDS011;6627;50.920;12.050;2023-02-18T13:39:24;0.97;;;0.60;;
13122;SDS011;6627;50.920;12.050;2023-02-18T13:45:01;0.60;;;0.60;;
13122;SDS011;6627;50.920;12.050;2023-02-18T13:47:35;0.67;;;0.60;;
13122;SDS011;6627;50.920;12.050;2023-02-18T13:50:24;0.73;;;0.60;;
13122;SDS011;6627;50.920;12.050;2023-02-18T13:55:59;0.80;;;0.80;;
13122;SDS011;6627;50.920;12.050;2023-02-18T13:58:40;0.60;;;0.60;;
13122;SDS011;6627;50.920;12.050;2023-02-18T14:01:18;0.73;;;0.63;;
13122;SDS011;6627;50.920;12.050;2023-02-18T14:03:54;1.47;;;0.50;;
13122;SDS011;6627;50.920;12.050;2023-02-18T14:06:26;0.80;;;0.60;;
13122;SDS011;6627;50.920;12.050;2023-02-18T14:09:04;1.03;;;0.70;;
13122;SDS011;6627;50.920;12.050;2023-02-18T14:12:15;0.90;;;0.60;;
13122;SDS011;6627;50.920;12.050;2023-02-18T14:18:30;1.57;;;0.80;;
13122;SDS011;6627;50.920;12.050;2023-02-18T14:21:17;0.77;;;0.70;;
13122;SDS011;6627;50.920;12.050;2023-02-18T14:23:59;0.40;;;0.40;;
13122;SDS011;6627;50.920;12.050;2023-02-18T14:26:34;0.73;;;0.60;;
13122;SDS011;6627;50.920;12.050;2023-02-18T14:29:10;0.50;;;0.50;;
13122;SDS011;6627;50.920;12.050;2023-02-18T14:31:49;0.50;;;0.50;;
13122;SDS011;6627;50.920;12.050;2023-02-18T14:37:44;2.53;;;0.87;;
13122;SDS011;6627;50.920;12.050;2023-02-18T14:40:35;1.67;;;0.70;;
13122;SDS011;6627;50.920;12.050;2023-02-18T14:43:19;0.87;;;0.47;;
13122;SDS011;6627;50.920;12.050;2023-02-18T14:46:06;0.97;;;0.50;;
13122;SDS011;6627;50.920;12.050;2023-02-18T14:51:59;0.77;;;0.63;;
13122;SDS011;6627;50.920;12.050;2023-02-18T14:54:30;2.60;;;0.70;;
13122;SDS011;6627;50.920;12.050;2023-02-18T14:56:59;0.80;;;0.60;;
13122;SDS011;6627;50.920;12.050;2023-02-18T14:59:32;1.70;;;0.60;;
13122;SDS011;6627;50.920;12.050;2023-02-18T15:02:08;1.23;;;0.60;;
13122;SDS011;6627;50.920;12.050;2023-02-18T15:04:46;0.60;;;0.50;;
13122;SDS011;6627;50.920;12.050;2023-02-18T15:07:17;0.80;;;0.77;;
13122;SDS011;6627;50.920;12.050;2023-02-18T15:09:47;0.40;;;0.40;;
13122;SDS011;6627;50.920;12.050;2023-02-18T15:12:20;0.90;;;0.60;;
13122;SDS011;6627;50.920;12.050;2023-02-18T15:14:52;0.43;;;0.43;;
13122;SDS011;6627;50.920;12.050;2023-02-18T15:17:28;0.97;;;0.47;;
13122;SDS011;6627;50.920;12.050;2023-02-18T15:19:57;3.10;;;0.83;;
13122;SDS011;6627;50.920;12.050;2023-02-18T15:22:31;1.33;;;0.60;;
13122;SDS011;6627;50.920;12.050;2023-02-18T15:25:01;0.73;;;0.50;;
13122;SDS011;6627;50.920;12.050;2023-02-18T15:27:38;0.70;;;0.50;;
13122;SDS011;6627;50.920;12.050;2023-02-18T15:30:23;0.93;;;0.40;;
13122;SDS011;6627;50.920;12.050;2023-02-18T15:32:54;0.90;;;0.70;;
13122;SDS011;6627;50.920;12.050;2023-02-18T15:35:26;0.50;;;0.50;;
13122;SDS011;6627;50.920;12.050;2023-02-18T15:37:59;0.73;;;0.60;;
13122;SDS011;6627;50.920;12.050;2023-02-18T15:40:33;0.40;;;0.40;;
13122;SDS011;6627;50.920;12.050;2023-02-18T15:43:06;1.40;;;0.77;;
13122;SDS011;6627;50.920;12.050;2023-02-18T15:45:36;0.77;;;0.70;;
13122;SDS011;6627;50.920;12.050;2023-02-18T15:48:12;2.03;;;1.20;;
13122;SDS011;6627;50.920;12.050;2023-02-18T15:50:54;1.00;;;0.90;;
13122;SDS011;6627;50.920;12.050;2023-02-18T15:53:25;0.90;;;0.70;;
13122;SDS011;6627;50.920;12.050;2023-02-18T15:55:53;0.43;;;0.40;;
13122;SDS011;6627;50.920;12.050;2023-02-18T15:58:22;1.37;;;0.70;;